Time;durP1;ratioP1;P1;durP2;ratioP2;P2;SDS_P1;SDS_P2;PMS_P1;PMS_P2;Temp;Humidity;BMP_temperature;BMP_pressure;BME280_temperature;BME280_humidity;BME280_pressure;Samples;Min_cycle;Max_cycle;Signal;HPM_P1;HPM_P2
2021/12/01 00:01:29;;;;;;;7.05;3.50;;;0.90;99.90;;;;;;5013294;28;20077;-71
2021/12/01 00:03:55;;;;;;;8.00;3.80;;;0.80;99.90;;;;;;5013346;28;20026;-71
2021/12/01 00:06:20;;;;;;;4.88;2.83;;;0.90;99.90;;;;;;5013972;28;20014;-71
2021/12/01 00:08:46;;;;;;;2.63;1.40;;;0.80;99.90;;;;;;5013702;28;20494;-71
2021/12/01 00:11:12;;;;;;;2.50;1.50;;;0.90;99.90;;;;;;5013279;28;20030;-71
2021/12/01 00:13:38;;;;;;;2.38;1.45;;;0.90;99.90;;;;;;5013243;28;20033;-71
2021/12/01 00:16:04;;;;;;;3.05;1.70;;;0.90;99.90;;;;;;5013311;28;20041;-71
2021/12/01 00:18:30;;;;;;;2.63;1.33;;;0.90;99.90;;;;;;5013565;28;20032;-71
2021/12/01 00:20:57;;;;;;;2.90;1.40;;;0.90;99.90;;;;;;5013094;28;20029;-71
2021/12/01 00:23:23;;;;;;;2.90;1.42;;;0.90;99.90;;;;;;5013186;28;20022;-71
2021/12/01 00:25:50;;;;;;;2.28;1.20;;;0.90;99.90;;;;;;5013238;28;20028;-71
2021/12/01 00:28:15;;;;;;;2.20;1.40;;;0.90;99.90;;;;;;5012525;28;20022;-71
2021/12/01 00:30:42;;;;;;;3.13;1.60;;;0.90;99.90;;;;;;5017068;28;20068;-71
2021/12/01 00:33:13;;;;;;;2.80;1.50;;;0.90;99.90;;;;;;5017036;28;20093;-71
2021/12/01 00:35:39;;;;;;;2.10;1.30;;;0.90;99.90;;;;;;5017233;28;20018;-71
2021/12/01 00:38:05;;;;;;;1.88;1.25;;;0.90;99.90;;;;;;5016873;28;20040;-71
2021/12/01 00:40:31;;;;;;;3.80;1.77;;;0.90;99.90;;;;;;5016699;28;20030;-71
2021/12/01 00:42:57;;;;;;;3.15;1.45;;;0.90;99.90;;;;;;5015193;28;20018;-71
2021/12/01 00:45:25;;;;;;;3.05;1.67;;;0.90;99.90;;;;;;5016819;28;20125;-72
2021/12/01 00:47:52;;;;;;;2.25;1.50;;;0.80;99.90;;;;;;5016960;28;20027;-72
2021/12/01 00:50:29;;;;;;;3.83;1.80;;;0.80;99.90;;;;;;5016605;28;20072;-72
2021/12/01 00:53:00;;;;;;;2.80;1.80;;;0.80;99.90;;;;;;5016872;28;20026;-72
2021/12/01 00:55:26;;;;;;;3.75;1.90;;;0.80;99.90;;;;;;5016843;28;20105;-72
2021/12/01 00:57:52;;;;;;;2.85;1.63;;;0.80;99.90;;;;;;5016276;28;20496;-72
2021/12/01 01:00:20;;;;;;;2.92;1.90;;;0.80;99.90;;;;;;5016507;28;20034;-72
2021/12/01 01:02:46;;;;;;;2.58;1.63;;;0.80;99.90;;;;;;5016296;28;20026;-73
2021/12/01 01:05:12;;;;;;;2.67;1.90;;;0.80;99.90;;;;;;5016287;28;20080;-72
2021/12/01 01:07:38;;;;;;;3.05;1.80;;;0.80;99.90;;;;;;5016259;28;20018;-72
2021/12/01 01:11:10;;;;;;;3.22;1.90;;;0.80;99.90;;;;;;5016226;28;20113;-72
2021/12/01 01:16:22;;;;;;;2.70;1.60;;;0.80;99.90;;;;;;5016497;28;20032;-73
2021/12/01 01:19:00;;;;;;;3.45;2.05;;;0.80;99.90;;;;;;5016398;28;20018;-72
2021/12/01 01:21:30;;;;;;;24.52;11.93;;;0.90;99.90;;;;;;5015898;28;20397;-72
2021/12/01 01:23:57;;;;;;;18.48;9.60;;;0.90;99.90;;;;;;5016574;28;20076;-73
2021/12/01 01:26:25;;;;;;;24.55;10.88;;;0.80;99.90;;;;;;5016192;28;20033;-73
2021/12/01 01:28:51;;;;;;;10.10;4.85;;;0.80;99.90;;;;;;5015724;28;20076;-72
2021/12/01 01:31:18;;;;;;;7.20;3.55;;;0.80;99.90;;;;;;5015826;28;20026;-72
2021/12/01 01:33:45;;;;;;;6.20;3.38;;;0.80;99.90;;;;;;5016126;28;20032;-72
2021/12/01 01:36:11;;;;;;;7.32;4.10;;;0.80;99.90;;;;;;5015714;28;20026;-72
2021/12/01 01:38:37;;;;;;;7.78;4.38;;;0.80;99.90;;;;;;5016006;28;20436;-73
2021/12/01 01:41:06;;;;;;;5.63;3.05;;;0.80;99.90;;;;;;5015563;28;20030;-72
2021/12/01 01:43:33;;;;;;;3.92;2.17;;;0.80;99.90;;;;;;5015387;28;20022;-72
2021/12/01 01:45:59;;;;;;;2.88;1.98;;;0.80;99.90;;;;;;5015635;28;20589;-72
2021/12/01 01:48:32;;;;;;;3.50;2.22;;;0.80;99.90;;;;;;5015610;28;20061;-72
2021/12/01 01:51:04;;;;;;;2.63;1.85;;;0.70;99.90;;;;;;5015438;28;20497;-72
2021/12/01 01:53:31;;;;;;;2.60;1.60;;;0.80;99.90;;;;;;5014267;28;20037;-73
2021/12/01 01:56:04;;;;;;;2.70;1.63;;;0.80;99.90;;;;;;5015442;28;20478;-72
2021/12/01 01:58:30;;;;;;;2.60;1.67;;;0.70;99.90;;;;;;5015122;28;20045;-72
2021/12/01 02:01:17;;;;;;;2.63;1.60;;;0.80;99.90;;;;;;5015300;28;20022;-72
2021/12/01 02:03:45;;;;;;;2.60;1.60;;;0.80;99.90;;;;;;5015432;28;20022;-72
2021/12/01 02:06:14;;;;;;;2.70;1.67;;;0.80;99.90;;;;;;5015254;28;20032;-73
2021/12/01 02:08:42;;;;;;;3.58;2.13;;;0.80;99.90;;;;;;5015432;28;20022;-73
2021/12/01 02:11:10;;;;;;;2.88;1.85;;;0.70;99.90;;;;;;5015041;28;20050;-73
2021/12/01 02:13:38;;;;;;;3.83;2.30;;;0.70;99.90;;;;;;5014911;28;20104;-72
2021/12/01 02:16:04;;;;;;;3.42;1.90;;;0.80;99.90;;;;;;5015039;28;20034;-73
2021/12/01 02:18:31;;;;;;;4.25;2.33;;;0.80;99.90;;;;;;5015047;28;20481;-73
2021/12/01 02:21:06;;;;;;;4.05;2.22;;;0.80;99.90;;;;;;5015123;28;20109;-73
2021/12/01 02:23:34;;;;;;;3.65;2.35;;;0.80;99.90;;;;;;5013747;28;20073;-73
2021/12/01 02:26:00;;;;;;;4.70;2.50;;;0.80;99.90;;;;;;5014837;28;20026;-73
2021/12/01 02:28:26;;;;;;;4.53;2.50;;;0.80;99.90;;;;;;5014558;28;20022;-73
2021/12/01 02:30:52;;;;;;;3.70;2.10;;;0.70;99.90;;;;;;5014729;28;20381;-73
2021/12/01 02:33:17;;;;;;;3.50;2.33;;;0.70;99.90;;;;;;5014703;28;20029;-73
2021/12/01 02:35:43;;;;;;;4.22;2.67;;;0.70;99.90;;;;;;5014878;28;20053;-72
2021/12/01 02:38:09;;;;;;;4.90;3.20;;;0.70;99.90;;;;;;5014890;28;20032;-72
2021/12/01 02:40:35;;;;;;;3.65;2.50;;;0.70;99.90;;;;;;5014444;28;20031;-73
2021/12/01 02:43:01;;;;;;;4.15;2.60;;;0.70;99.90;;;;;;5014303;28;20429;-72
2021/12/01 02:45:26;;;;;;;4.50;2.72;;;0.70;99.90;;;;;;5013232;28;20018;-73
2021/12/01 02:47:52;;;;;;;4.28;2.70;;;0.70;99.90;;;;;;5014455;28;20029;-73
2021/12/01 02:50:18;;;;;;;5.13;3.17;;;0.70;99.90;;;;;;5014424;28;20096;-73
2021/12/01 02:52:46;;;;;;;4.15;2.80;;;0.70;99.90;;;;;;5014284;28;20429;-73
2021/12/01 02:55:15;;;;;;;5.82;3.28;;;0.70;99.90;;;;;;5014630;28;20034;-73
2021/12/01 02:57:47;;;;;;;4.55;2.83;;;0.80;99.90;;;;;;5014043;28;20026;-72
2021/12/01 03:00:15;;;;;;;5.85;3.30;;;0.70;99.90;;;;;;5014156;28;20033;-72
2021/12/01 03:02:42;;;;;;;5.85;3.78;;;0.80;99.90;;;;;;5012985;28;20068;-72
2021/12/01 03:05:09;;;;;;;9.07;6.03;;;0.80;99.90;;;;;;5014095;28;20402;-72
2021/12/01 03:07:35;;;;;;;14.60;8.88;;;0.90;99.90;;;;;;5014114;28;20021;-72
2021/12/01 03:10:02;;;;;;;10.93;6.05;;;0.90;99.90;;;;;;5014270;28;20024;-72
2021/12/01 03:12:30;;;;;;;9.07;5.65;;;0.90;99.90;;;;;;5014073;28;20101;-73
2021/12/01 03:14:56;;;;;;;10.70;6.07;;;0.80;99.90;;;;;;5013747;28;20022;-73
2021/12/01 03:17:27;;;;;;;9.57;5.78;;;0.80;99.90;;;;;;5013956;28;20057;-73
2021/12/01 03:19:54;;;;;;;9.68;5.45;;;0.80;99.90;;;;;;5014167;28;20022;-73
2021/12/01 03:22:19;;;;;;;10.23;5.47;;;0.80;99.90;;;;;;5013870;28;20111;-73
2021/12/01 03:24:45;;;;;;;8.48;5.38;;;0.80;99.90;;;;;;5012620;28;20077;-73
2021/12/01 03:27:11;;;;;;;8.90;5.03;;;0.70;99.90;;;;;;5013906;28;20022;-73
2021/12/01 03:29:37;;;;;;;7.45;4.15;;;0.80;99.90;;;;;;5013536;28;20367;-72
2021/12/01 03:32:03;;;;;;;7.40;4.22;;;0.80;99.90;;;;;;5013913;28;20048;-73
2021/12/01 03:34:29;;;;;;;7.38;4.65;;;0.80;99.90;;;;;;5014230;28;20512;-73
2021/12/01 03:36:56;;;;;;;5.40;3.47;;;0.80;99.90;;;;;;5013756;28;20370;-73
2021/12/01 03:39:23;;;;;;;5.10;3.50;;;0.80;99.90;;;;;;5012391;28;20511;-73
2021/12/01 03:41:49;;;;;;;4.32;2.97;;;0.80;99.90;;;;;;5013572;28;20064;-73
2021/12/01 03:44:14;;;;;;;3.00;1.67;;;0.80;99.90;;;;;;5013343;28;20045;-73
2021/12/01 03:46:41;;;;;;;2.80;1.88;;;0.80;99.90;;;;;;5013628;28;20072;-73
2021/12/01 03:49:06;;;;;;;3.25;1.67;;;0.80;99.90;;;;;;5014151;28;20026;-73
2021/12/01 03:51:32;;;;;;;2.55;1.70;;;0.80;99.90;;;;;;5013551;28;20044;-73
2021/12/01 03:53:58;;;;;;;1.95;1.23;;;0.80;99.90;;;;;;5013567;28;20030;-73
2021/12/01 03:56:24;;;;;;;2.17;1.48;;;0.80;99.90;;;;;;5013793;28;20114;-73
2021/12/01 03:58:50;;;;;;;2.90;1.95;;;0.80;99.90;;;;;;5013239;28;20029;-73
2021/12/01 04:01:16;;;;;;;4.22;2.55;;;0.80;99.90;;;;;;5013354;28;20030;-73
2021/12/01 04:03:42;;;;;;;3.65;2.40;;;0.80;99.90;;;;;;5014979;28;20022;-73
2021/12/01 04:06:08;;;;;;;3.47;2.05;;;0.80;99.90;;;;;;5017556;28;20026;-73
2021/12/01 04:08:34;;;;;;;4.70;2.33;;;0.80;99.90;;;;;;5017483;28;20022;-73
2021/12/01 04:11:00;;;;;;;3.47;2.05;;;0.80;99.90;;;;;;5017367;28;20033;-73
2021/12/01 04:13:26;;;;;;;3.75;2.70;;;0.80;99.90;;;;;;5017211;28;20026;-72
2021/12/01 04:16:01;;;;;;;3.42;2.50;;;0.80;99.90;;;;;;5026909;23;20385;-82
2021/12/01 04:18:27;;;;;;;3.28;2.10;;;0.80;99.90;;;;;;5019251;28;20053;-81
2021/12/01 04:20:52;;;;;;;3.58;2.20;;;0.80;99.90;;;;;;5018688;28;20449;-81
2021/12/01 04:23:19;;;;;;;4.18;2.35;;;0.80;99.90;;;;;;5018591;28;20033;-82
2021/12/01 04:25:45;;;;;;;3.80;2.22;;;0.80;99.90;;;;;;5018673;28;20018;-81
2021/12/01 04:28:11;;;;;;;3.42;2.03;;;0.80;99.90;;;;;;5017354;28;20021;-82
2021/12/01 04:30:37;;;;;;;2.97;1.90;;;0.70;99.90;;;;;;5016842;28;20049;-82
2021/12/01 04:33:04;;;;;;;2.95;2.00;;;0.80;99.90;;;;;;5033272;28;20057;-82
2021/12/01 04:35:29;;;;;;;3.88;2.30;;;0.80;99.90;;;;;;5016665;28;20032;-82
2021/12/01 04:37:56;;;;;;;3.20;2.17;;;0.70;99.90;;;;;;5018150;28;20167;-81
2021/12/01 04:40:24;;;;;;;3.97;2.40;;;0.70;99.90;;;;;;5018773;28;20099;-82
2021/12/01 04:42:50;;;;;;;3.40;2.05;;;0.70;99.90;;;;;;5017051;28;20025;-82
2021/12/01 04:45:19;;;;;;;3.20;2.08;;;0.70;99.90;;;;;;5017654;28;20092;-82
2021/12/01 04:47:47;;;;;;;12.63;8.57;;;0.70;99.90;;;;;;5018394;28;20072;-82
2021/12/01 04:50:14;;;;;;;11.30;8.32;;;0.70;99.90;;;;;;5018208;28;20022;-81
2021/12/01 04:52:41;;;;;;;8.45;5.72;;;0.70;99.90;;;;;;5018660;28;20061;-81
2021/12/01 04:55:08;;;;;;;6.63;3.90;;;0.70;99.90;;;;;;5018696;28;20022;-81
2021/12/01 04:57:34;;;;;;;5.97;3.78;;;0.70;99.90;;;;;;5012377;28;20028;-81
2021/12/01 04:59:59;;;;;;;5.13;2.78;;;0.60;99.90;;;;;;4998609;28;20444;-82
2021/12/01 05:02:25;;;;;;;3.85;2.10;;;0.70;99.90;;;;;;4998386;28;20034;-81
2021/12/01 05:04:51;;;;;;;3.35;2.05;;;0.60;99.90;;;;;;4997666;28;20470;-82
2021/12/01 05:07:17;;;;;;;4.00;2.17;;;0.70;99.90;;;;;;4998232;28;20106;-81
2021/12/01 05:09:43;;;;;;;3.80;2.03;;;0.70;99.90;;;;;;4998009;28;20025;-82
2021/12/01 05:12:10;;;;;;;5.30;2.92;;;0.70;99.90;;;;;;4996848;28;20026;-81
2021/12/01 05:14:36;;;;;;;7.70;3.13;;;0.70;99.90;;;;;;4997224;28;20030;-81
2021/12/01 05:17:02;;;;;;;7.60;3.42;;;0.70;99.90;;;;;;5042255;23;20038;-73
2021/12/01 05:19:28;;;;;;;8.00;3.50;;;0.70;99.90;;;;;;5036225;28;20021;-74
2021/12/01 05:21:54;;;;;;;6.25;3.10;;;0.70;99.90;;;;;;5035856;28;20026;-73
2021/12/01 05:24:20;;;;;;;5.82;3.13;;;0.70;99.90;;;;;;5035967;28;20385;-73
2021/12/01 05:26:46;;;;;;;4.43;2.58;;;0.70;99.90;;;;;;5035726;28;20017;-72
2021/12/01 05:29:12;;;;;;;5.80;3.00;;;0.70;99.90;;;;;;5034553;28;20388;-73
2021/12/01 05:31:38;;;;;;;4.18;2.53;;;0.80;99.90;;;;;;5036380;28;20025;-71
2021/12/01 05:34:04;;;;;;;4.65;2.38;;;0.70;99.90;;;;;;5034441;28;20075;-72
2021/12/01 05:36:30;;;;;;;3.30;1.92;;;0.70;99.90;;;;;;5035999;28;20025;-72
2021/12/01 05:38:55;;;;;;;3.75;2.25;;;0.70;99.90;;;;;;5035505;28;20456;-72
2021/12/01 05:41:21;;;;;;;4.57;2.60;;;0.70;99.90;;;;;;5035669;28;20030;-71
2021/12/01 05:43:47;;;;;;;8.98;3.83;;;0.80;99.90;;;;;;5034181;28;20044;-70
2021/12/01 05:46:13;;;;;;;6.95;3.28;;;0.80;99.90;;;;;;5035726;28;20473;-70
2021/12/01 05:48:39;;;;;;;6.88;3.85;;;0.80;99.90;;;;;;5035648;28;20096;-70
2021/12/01 05:51:05;;;;;;;7.88;3.92;;;0.80;99.90;;;;;;5034142;28;20103;-71
2021/12/01 05:53:31;;;;;;;7.47;3.63;;;0.70;99.90;;;;;;5035355;28;20481;-71
2021/12/01 05:55:57;;;;;;;10.88;5.45;;;0.70;99.90;;;;;;5035711;28;20033;-71
2021/12/01 05:58:23;;;;;;;8.95;5.38;;;0.80;99.90;;;;;;5035478;28;20033;-71
2021/12/01 06:00:49;;;;;;;7.40;4.65;;;0.70;99.90;;;;;;5033842;28;20075;-71
2021/12/01 06:03:14;;;;;;;8.82;4.68;;;0.70;99.90;;;;;;5035142;28;20029;-71
2021/12/01 06:05:43;;;;;;;10.73;4.47;;;0.70;99.90;;;;;;5035138;28;20102;-71
2021/12/01 06:08:09;;;;;;;8.10;4.22;;;0.70;99.90;;;;;;5035227;28;20017;-72
2021/12/01 06:10:35;;;;;;;8.18;4.75;;;0.80;99.90;;;;;;5035285;28;20117;-72
2021/12/01 06:13:01;;;;;;;7.90;4.78;;;0.90;99.90;;;;;;5034941;28;20057;-72
2021/12/01 06:15:26;;;;;;;11.80;6.20;;;1.00;99.90;;;;;;5034908;28;20043;-72
2021/12/01 06:17:53;;;;;;;11.77;6.10;;;1.10;99.90;;;;;;5034662;28;20088;-71
2021/12/01 06:20:19;;;;;;;9.88;5.32;;;1.10;99.90;;;;;;5034718;28;20036;-71
2021/12/01 06:22:44;;;;;;;8.63;4.82;;;1.20;99.90;;;;;;5034756;28;20655;-72
2021/12/01 06:25:11;;;;;;;6.32;4.10;;;1.20;99.90;;;;;;5034680;28;20029;-71
2021/12/01 06:27:37;;;;;;;5.10;3.40;;;1.10;99.90;;;;;;5034204;28;20026;-72
2021/12/01 06:30:05;;;;;;;6.72;3.92;;;1.10;99.90;;;;;;5034849;28;20029;-71
2021/12/01 06:32:31;;;;;;;6.70;3.95;;;1.00;99.90;;;;;;5034583;28;20057;-72
2021/12/01 06:34:57;;;;;;;6.22;3.67;;;0.90;99.90;;;;;;5034776;28;20057;-72
2021/12/01 06:37:22;;;;;;;8.15;4.72;;;0.90;99.90;;;;;;5034368;28;20036;-72
2021/12/01 06:39:50;;;;;;;10.25;4.20;;;1.00;99.90;;;;;;5034924;28;20025;-71
2021/12/01 06:42:15;;;;;;;7.50;4.10;;;1.00;99.90;;;;;;5034475;28;20037;-71
2021/12/01 06:44:41;;;;;;;5.88;3.35;;;1.10;99.90;;;;;;5034585;28;20025;-71
2021/12/01 06:47:07;;;;;;;5.70;3.08;;;1.10;99.90;;;;;;5034462;28;20018;-71
2021/12/01 06:49:33;;;;;;;5.90;2.85;;;1.20;99.90;;;;;;5034236;28;20095;-71
2021/12/01 06:51:59;;;;;;;5.45;2.83;;;1.20;99.90;;;;;;5034487;28;20037;-71
2021/12/01 06:54:25;;;;;;;4.90;2.85;;;1.20;99.90;;;;;;5034161;28;20032;-71
2021/12/01 06:56:50;;;;;;;7.78;4.57;;;1.30;99.90;;;;;;5033968;28;20444;-71
2021/12/01 06:59:16;;;;;;;10.60;5.50;;;1.30;99.90;;;;;;5034105;28;20029;-69
2021/12/01 07:01:42;;;;;;;10.60;4.80;;;1.40;99.90;;;;;;5033932;28;20029;-71
2021/12/01 07:04:08;;;;;;;9.35;3.85;;;1.30;99.90;;;;;;5034761;28;20026;-71
2021/12/01 07:06:33;;;;;;;13.88;7.07;;;1.30;99.90;;;;;;5034113;28;20025;-70
2021/12/01 07:09:00;;;;;;;15.45;9.32;;;1.20;99.90;;;;;;5034228;28;20030;-71
2021/12/01 07:11:27;;;;;;;11.57;7.43;;;1.10;99.90;;;;;;5032590;28;20021;-70
2021/12/01 07:13:53;;;;;;;7.57;5.20;;;1.00;99.90;;;;;;5033857;28;20034;-70
2021/12/01 07:16:18;;;;;;;8.25;5.00;;;1.00;99.90;;;;;;5033600;28;20366;-71
2021/12/01 07:18:44;;;;;;;6.82;4.10;;;0.90;99.90;;;;;;5033754;28;20366;-71
2021/12/01 07:21:11;;;;;;;9.35;5.28;;;0.90;99.90;;;;;;5033645;28;20028;-71
2021/12/01 07:23:36;;;;;;;7.75;4.53;;;1.00;99.90;;;;;;5033714;28;20432;-72
2021/12/01 07:26:02;;;;;;;9.73;5.63;;;1.10;99.90;;;;;;5033582;28;20108;-72
2021/12/01 07:28:28;;;;;;;9.00;5.10;;;1.20;99.90;;;;;;5033638;28;20021;-72
2021/12/01 07:30:54;;;;;;;13.15;6.80;;;1.30;99.90;;;;;;5033560;28;20025;-71
2021/12/01 07:33:19;;;;;;;7.40;4.53;;;1.40;99.90;;;;;;5033543;28;20029;-72
2021/12/01 07:35:45;;;;;;;178.25;62.65;;;1.50;99.90;;;;;;5033458;28;20092;-71
2021/12/01 07:38:12;;;;;;;91.47;35.58;;;1.50;99.90;;;;;;5032646;28;20021;-71
2021/12/01 07:40:38;;;;;;;50.33;20.25;;;1.50;99.90;;;;;;5033357;28;20030;-72
2021/12/01 07:43:04;;;;;;;15.57;7.15;;;1.50;99.90;;;;;;5033471;28;20024;-71
2021/12/01 07:45:29;;;;;;;12.43;7.30;;;1.60;99.90;;;;;;5033452;28;20435;-71
2021/12/01 07:47:56;;;;;;;12.60;6.47;;;1.60;99.90;;;;;;5033275;28;20026;-71
2021/12/01 07:50:21;;;;;;;11.32;6.45;;;1.60;99.90;;;;;;5033381;28;20072;-71
2021/12/01 07:52:47;;;;;;;11.38;6.20;;;1.70;99.90;;;;;;5033325;28;20021;-71
2021/12/01 07:55:14;;;;;;;15.27;5.90;;;1.70;99.90;;;;;;5033330;28;20025;-71
2021/12/01 07:57:40;;;;;;;12.20;5.95;;;1.60;99.90;;;;;;5033713;28;20026;-71
2021/12/01 08:00:06;;;;;;;12.18;6.00;;;1.60;99.90;;;;;;5033251;28;20116;-71
2021/12/01 08:02:32;;;;;;;9.40;5.60;;;1.60;99.90;;;;;;5033210;28;20057;-71
2021/12/01 08:04:58;;;;;;;9.50;5.57;;;1.70;99.90;;;;;;5033158;28;20056;-71
2021/12/01 08:07:27;;;;;;;10.65;6.72;;;1.70;99.90;;;;;;5033109;28;20048;-71
2021/12/01 08:09:52;;;;;;;9.38;5.90;;;1.70;99.90;;;;;;5033182;28;20045;-70
2021/12/01 08:12:18;;;;;;;28.40;9.13;;;1.70;99.90;;;;;;5033243;28;20080;-71
2021/12/01 08:14:44;;;;;;;20.75;6.75;;;1.70;99.90;;;;;;5033106;28;20033;-71
2021/12/01 08:17:09;;;;;;;19.65;7.30;;;1.70;99.90;;;;;;5033035;28;20167;-71
2021/12/01 08:19:35;;;;;;;12.70;6.53;;;1.70;99.90;;;;;;5033559;28;20405;-70
2021/12/01 08:22:01;;;;;;;14.13;6.53;;;1.70;99.90;;;;;;5032969;28;20041;-71
2021/12/01 08:24:27;;;;;;;8.00;4.95;;;1.80;99.90;;;;;;5033261;28;20018;-71
2021/12/01 08:26:52;;;;;;;8.73;4.70;;;1.80;99.90;;;;;;5031676;28;20025;-70
2021/12/01 08:29:18;;;;;;;8.18;4.75;;;1.90;99.90;;;;;;5033285;28;20022;-72
2021/12/01 08:31:44;;;;;;;6.55;3.95;;;2.00;99.90;;;;;;5033196;28;20514;-71
2021/12/01 08:34:11;;;;;;;6.35;3.95;;;2.00;99.90;;;;;;5033160;28;20029;-70
2021/12/01 08:36:37;;;;;;;5.20;3.13;;;2.10;99.90;;;;;;5032841;28;20157;-72
2021/12/01 08:39:04;;;;;;;6.20;3.08;;;2.20;99.90;;;;;;5033214;28;20021;-71
2021/12/01 08:41:30;;;;;;;5.75;3.55;;;2.30;99.90;;;;;;5032792;28;20025;-71
2021/12/01 08:43:56;;;;;;;5.30;3.20;;;2.40;99.90;;;;;;5032852;28;20422;-72
2021/12/01 08:46:21;;;;;;;7.78;3.75;;;2.40;99.90;;;;;;5032756;28;20025;-72
2021/12/01 08:48:47;;;;;;;9.75;4.00;;;2.50;99.90;;;;;;5032728;28;20021;-71
2021/12/01 08:51:13;;;;;;;7.65;4.72;;;2.50;99.90;;;;;;5036864;28;20101;-72
2021/12/01 08:53:41;;;;;;;7.80;4.35;;;2.50;99.90;;;;;;5036524;28;20033;-72
2021/12/01 08:56:08;;;;;;;19.23;7.50;;;2.50;99.90;;;;;;5035058;28;20163;-71
2021/12/01 08:58:34;;;;;;;33.10;8.32;;;2.50;99.90;;;;;;5036694;28;20469;-72
2021/12/01 09:01:00;;;;;;;17.75;6.80;;;2.50;99.90;;;;;;5036246;28;20043;-72
2021/12/01 09:03:26;;;;;;;9.00;4.45;;;2.60;99.90;;;;;;5036237;28;20024;-72
2021/12/01 09:05:53;;;;;;;10.77;4.90;;;2.60;99.90;;;;;;5036752;28;20021;-72
2021/12/01 09:08:22;;;;;;;8.13;4.25;;;2.60;99.90;;;;;;5036230;28;20088;-72
2021/12/01 09:10:52;;;;;;;8.27;4.28;;;2.70;99.90;;;;;;5036411;28;20072;-72
2021/12/01 09:13:23;;;;;;;7.20;3.95;;;2.80;99.90;;;;;;5036428;28;20469;-72
2021/12/01 09:15:52;;;;;;;5.97;3.70;;;2.80;99.90;;;;;;5036295;28;20366;-72
2021/12/01 09:18:18;;;;;;;7.32;4.78;;;2.90;99.90;;;;;;5036270;28;20491;-72
2021/12/01 09:20:43;;;;;;;7.20;4.47;;;2.90;99.90;;;;;;5035848;28;20033;-72
2021/12/01 09:23:09;;;;;;;5.47;3.70;;;2.90;99.90;;;;;;5036146;28;20025;-72
2021/12/01 09:25:35;;;;;;;6.75;4.05;;;3.00;99.90;;;;;;5036091;28;20025;-72
2021/12/01 09:28:01;;;;;;;7.70;4.00;;;3.10;99.90;;;;;;5035816;28;20049;-72
2021/12/01 09:30:27;;;;;;;5.47;3.22;;;3.20;99.90;;;;;;5035844;28;20024;-72
2021/12/01 09:32:53;;;;;;;5.25;3.50;;;3.20;99.90;;;;;;5035687;28;20033;-72
2021/12/01 09:35:19;;;;;;;5.40;3.83;;;3.20;99.90;;;;;;5035623;28;20174;-72
2021/12/01 09:37:45;;;;;;;6.28;4.25;;;3.20;99.90;;;;;;5035581;28;20021;-72
2021/12/01 09:40:17;;;;;;;7.13;4.05;;;3.20;99.90;;;;;;5035894;28;20029;-72
2021/12/01 09:42:45;;;;;;;6.40;3.92;;;3.10;99.90;;;;;;5035837;28;20504;-72
2021/12/01 09:45:12;;;;;;;6.18;3.90;;;3.10;99.90;;;;;;5035788;28;20033;-72
2021/12/01 09:47:38;;;;;;;7.75;3.75;;;3.00;99.90;;;;;;5035431;28;20026;-72
2021/12/01 09:50:06;;;;;;;5.75;4.25;;;3.00;99.90;;;;;;5035668;28;20377;-72
2021/12/01 09:52:32;;;;;;;14.13;6.07;;;3.00;99.90;;;;;;5035338;28;20026;-71
2021/12/01 09:54:58;;;;;;;46.42;22.75;;;3.00;99.90;;;;;;5036119;28;20109;-71
2021/12/01 09:57:23;;;;;;;100.18;42.78;;;3.10;99.90;;;;;;5035318;28;20026;-71
2021/12/01 09:59:49;;;;;;;58.72;26.80;;;3.20;99.90;;;;;;5035211;28;20053;-71
2021/12/01 10:02:17;;;;;;;19.95;10.95;;;3.20;99.90;;;;;;5033985;28;20033;-71
2021/12/01 10:04:43;;;;;;;18.88;11.65;;;3.20;99.90;;;;;;5035184;28;20022;-71
2021/12/01 10:07:30;;;;;;;11.65;7.90;;;3.30;99.90;;;;;;5035177;28;20083;-71
2021/12/01 10:10:03;;;;;;;16.15;9.65;;;3.20;99.90;;;;;;5035569;28;20553;-70
2021/12/01 10:12:45;;;;;;;10.73;7.03;;;3.30;99.90;;;;;;5035228;28;20068;-70
2021/12/01 10:15:10;;;;;;;10.48;6.35;;;3.20;99.90;;;;;;5035447;28;20497;-70
2021/12/01 10:17:36;;;;;;;10.55;7.10;;;3.20;99.90;;;;;;5034723;28;20041;-71
2021/12/01 10:20:18;;;;;;;9.88;6.60;;;3.10;99.90;;;;;;5033805;28;20082;-70
2021/12/01 10:23:10;;;;;;;9.25;5.75;;;3.10;99.90;;;;;;5034804;28;20029;-71
2021/12/01 10:25:36;;;;;;;8.88;5.30;;;3.10;99.90;;;;;;5035313;28;20032;-70
2021/12/01 10:28:02;;;;;;;9.02;6.22;;;3.10;99.90;;;;;;5034582;28;20092;-70
2021/12/01 10:30:42;;;;;;;9.13;5.85;;;3.20;99.90;;;;;;5034614;28;20033;-71
2021/12/01 10:33:13;;;;;;;10.97;5.40;;;3.30;99.90;;;;;;5033259;28;20060;-70
2021/12/01 10:35:40;;;;;;;7.88;5.00;;;3.40;99.90;;;;;;5034595;28;20026;-71
2021/12/01 10:38:07;;;;;;;8.52;5.10;;;3.60;99.90;;;;;;5035009;28;20037;-70
2021/12/01 10:40:35;;;;;;;7.03;5.03;;;3.60;99.90;;;;;;5035168;28;20075;-71
2021/12/01 10:43:08;;;;;;;9.40;5.38;;;3.70;99.90;;;;;;5034729;28;20415;-70
2021/12/01 10:45:41;;;;;;;11.35;5.80;;;3.60;99.90;;;;;;5034713;28;20056;-71
2021/12/01 10:48:10;;;;;;;9.20;5.78;;;3.60;99.90;;;;;;5034404;28;20504;-71
2021/12/01 10:50:42;;;;;;;7.15;5.00;;;3.60;99.90;;;;;;5034697;28;20017;-71
2021/12/01 10:53:18;;;;;;;10.00;5.90;;;3.60;99.90;;;;;;5034105;28;20026;-71
2021/12/01 10:55:47;;;;;;;11.13;6.22;;;3.70;99.90;;;;;;5034419;28;20100;-70
2021/12/01 10:58:13;;;;;;;12.27;7.05;;;3.70;99.90;;;;;;5034122;28;20018;-69
2021/12/01 11:00:43;;;;;;;10.65;6.82;;;3.80;99.90;;;;;;5034052;28;20025;-70
2021/12/01 11:03:13;;;;;;;10.10;6.57;;;3.80;99.90;;;;;;5034657;28;20018;-70
2021/12/01 11:05:44;;;;;;;11.67;7.00;;;3.80;99.90;;;;;;5034040;28;20099;-70
2021/12/01 11:08:17;;;;;;;10.93;7.10;;;3.80;99.90;;;;;;5033868;28;20414;-71
2021/12/01 11:10:46;;;;;;;13.15;6.93;;;3.90;99.90;;;;;;5034168;28;20025;-71
2021/12/01 11:13:12;;;;;;;8.15;5.32;;;3.90;99.90;;;;;;5034071;28;20029;-70
2021/12/01 11:15:41;;;;;;;9.93;5.88;;;4.00;99.90;;;;;;5032467;28;20030;-71
2021/12/01 11:18:09;;;;;;;10.30;6.10;;;4.00;99.90;;;;;;5033600;28;20066;-70
2021/12/01 11:20:44;;;;;;;8.05;5.78;;;4.10;99.90;;;;;;5032300;28;20147;-71
2021/12/01 11:23:14;;;;;;;10.13;6.45;;;4.10;99.90;;;;;;5033872;28;20091;-71
2021/12/01 11:25:42;;;;;;;10.05;6.30;;;4.10;99.90;;;;;;5032317;28;20457;-71
2021/12/01 11:28:13;;;;;;;14.70;6.75;;;4.20;99.90;;;;;;5033445;28;20021;-71
2021/12/01 11:30:40;;;;;;;12.10;7.68;;;4.20;99.90;;;;;;5034386;28;20029;-71
2021/12/01 11:33:09;;;;;;;11.27;7.30;;;4.30;99.90;;;;;;5033433;28;20032;-71
2021/12/01 11:35:36;;;;;;;14.65;8.10;;;4.40;99.90;;;;;;5033509;28;20025;-71
2021/12/01 11:38:02;;;;;;;11.05;7.22;;;4.40;99.90;;;;;;5033724;28;20040;-71
2021/12/01 11:40:30;;;;;;;9.68;6.75;;;4.40;99.90;;;;;;5033327;28;20473;-71
2021/12/01 11:42:57;;;;;;;10.05;6.97;;;4.50;99.90;;;;;;5033616;28;20160;-71
2021/12/01 11:45:23;;;;;;;12.10;7.60;;;4.70;99.90;;;;;;5033730;28;20022;-71
2021/12/01 11:47:50;;;;;;;13.57;8.30;;;4.80;99.90;;;;;;5033311;28;20018;-70
2021/12/01 11:50:27;;;;;;;12.30;8.00;;;4.90;99.90;;;;;;5033293;28;20537;-71
2021/12/01 11:53:16;;;;;;;18.23;9.10;;;5.00;99.90;;;;;;5033353;28;20029;-70
2021/12/01 11:55:59;;;;;;;12.63;8.40;;;5.10;99.90;;;;;;5033263;28;20022;-70
2021/12/01 11:58:44;;;;;;;14.73;8.75;;;5.10;99.90;;;;;;5033087;28;20025;-71
2021/12/01 12:01:22;;;;;;;12.73;8.30;;;5.20;99.90;;;;;;5033122;28;20029;-71
2021/12/01 12:03:53;;;;;;;17.20;10.32;;;5.30;99.90;;;;;;5033495;28;20504;-71
2021/12/01 12:06:34;;;;;;;19.55;11.63;;;5.40;99.90;;;;;;5033305;28;20385;-71
2021/12/01 12:09:11;;;;;;;19.60;11.90;;;5.50;99.90;;;;;;5033415;28;20032;-71
2021/12/01 12:11:48;;;;;;;22.58;12.20;;;5.60;99.90;;;;;;5033234;28;20481;-71
2021/12/01 12:14:23;;;;;;;21.65;12.60;;;5.70;99.90;;;;;;5033169;28;20035;-71
2021/12/01 12:17:10;;;;;;;20.80;11.27;;;5.70;99.90;;;;;;5033157;28;20080;-70
2021/12/01 12:20:14;;;;;;;19.85;11.25;;;5.80;99.90;;;;;;5033108;28;20088;-70
2021/12/01 12:22:44;;;;;;;19.13;11.50;;;5.70;99.90;;;;;;5032976;28;20080;-71
2021/12/01 12:25:35;;;;;;;17.83;10.60;;;5.70;99.90;;;;;;5035664;28;20014;-71
2021/12/01 12:28:37;;;;;;;20.33;11.32;;;5.70;99.90;;;;;;5028713;28;20459;-71
2021/12/01 12:31:17;;;;;;;15.77;9.88;;;5.80;99.90;;;;;;5037220;28;20037;-71
2021/12/01 12:33:50;;;;;;;16.10;10.10;;;5.80;99.90;;;;;;5036805;28;20021;-71
2021/12/01 12:36:16;;;;;;;16.00;9.63;;;5.90;99.90;;;;;;5036685;28;20142;-71
2021/12/01 12:39:03;;;;;;;13.05;8.23;;;5.80;99.90;;;;;;5036995;28;20030;-72
2021/12/01 12:41:29;;;;;;;12.25;7.70;;;5.80;99.90;;;;;;5036799;28;20366;-72
2021/12/01 12:43:55;;;;;;;13.07;8.05;;;5.80;99.90;;;;;;5036568;28;20039;-72
2021/12/01 12:46:21;;;;;;;12.13;8.00;;;5.90;99.90;;;;;;5036795;28;20022;-72
2021/12/01 12:48:51;;;;;;;16.05;9.73;;;5.90;99.90;;;;;;5036524;28;20431;-71
2021/12/01 12:51:26;;;;;;;14.88;10.38;;;5.80;99.90;;;;;;5035244;28;20032;-70
2021/12/01 12:54:08;;;;;;;15.13;10.63;;;5.70;99.90;;;;;;5036679;28;20477;-70
2021/12/01 12:56:53;;;;;;;16.95;10.05;;;5.70;99.90;;;;;;5036886;28;20025;-71
2021/12/01 12:59:25;;;;;;;15.18;10.02;;;5.70;99.90;;;;;;5035181;28;20056;-71
2021/12/01 13:01:53;;;;;;;13.50;9.25;;;5.70;99.90;;;;;;5036428;28;20032;-71